Time;durP1;ratioP1;P1;durP2;ratioP2;P2;SDS_P1;SDS_P2;PMS_P1;PMS_P2;Temp;Humidity;BMP_temperature;BMP_pressure;BME280_temperature;BME280_humidity;BME280_pressure;Samples;Min_cycle;Max_cycle;Signal;HPM_P1;HPM_P2
2024/04/12 00:01:17;;;;;;;;;;;;;;;8.38;96.92;99347.94;5453403;26;19933;-46
2024/04/12 00:03:43;;;;;;;;;;;;;;;8.35;97.78;99342.81;5452510;26;19988;-49
2024/04/12 00:06:18;;;;;;;;;;;;;;;8.36;98.75;99347.09;5451440;26;19970;-48
2024/04/12 00:08:47;;;;;;;;;;;;;;;8.25;99.80;99343.94;5445400;26;19969;-47
2024/04/12 00:11:13;;;;;;;;;;;;;;;8.20;100.00;99340.59;5445108;26;20049;-48
2024/04/12 00:13:43;;;;;;;;;;;;;;;8.35;99.62;99335.03;5450681;26;19940;-47
2024/04/12 00:16:08;;;;;;;;;;;;;;;8.35;99.41;99334.19;5449063;26;20306;-47
2024/04/12 00:18:35;;;;;;;;;;;;;;;8.27;99.77;99326.59;5454046;26;19963;-46
2024/04/12 00:21:01;;;;;;;;;;;;;;;8.57;98.08;99328.41;5432583;26;19945;-47
2024/04/12 00:23:30;;;;;;;;;;;;;;;8.72;96.68;99325.38;5427843;26;20011;-47
2024/04/12 00:25:59;;;;;;;;;;;;;;;8.57;96.62;99330.13;5426731;26;19937;-48
2024/04/12 00:28:25;;;;;;;;;;;;;;;8.46;97.37;99332.16;5421043;26;20332;-47
2024/04/12 00:30:51;;;;;;;;;;;;;;;8.33;97.50;99326.44;5448502;26;19990;-48
2024/04/12 00:33:19;;;;;;;;;;;;;;;8.33;97.43;99326.44;5450392;26;19940;-47
2024/04/12 00:35:49;;;;;;;;;;;;;;;8.22;97.70;99325.84;5445112;26;19961;-47
2024/04/12 00:38:16;;;;;;;;;;;;;;;8.12;98.53;99318.31;5449020;26;19961;-47
2024/04/12 00:40:46;;;;;;;;;;;;;;;8.33;98.35;99326.44;5446149;26;20355;-48
2024/04/12 00:43:15;;;;;;;;;;;;;;;8.17;98.82;99319.06;5444627;26;19962;-47
2024/04/12 00:45:48;;;;;;;;;;;;;;;8.07;97.82;99315.84;5445643;26;19974;-49
2024/04/12 00:48:15;;;;;;;;;;;;;;;7.98;99.12;99316.09;5450701;26;20474;-47
2024/04/12 00:50:41;;;;;;;;;;;;;;;8.03;98.90;99319.41;5448635;26;19966;-47
2024/04/12 00:53:09;;;;;;;;;;;;;;;7.92;99.18;99321.41;5442099;26;20404;-46
2024/04/12 00:55:38;;;;;;;;;;;;;;;7.94;99.40;99322.22;5433887;26;19928;-49
2024/04/12 00:58:06;;;;;;;;;;;;;;;7.69;100.00;99321.09;5439779;26;19977;-47
2024/04/12 01:00:46;;;;;;;;;;;;;;;7.68;100.00;99319.41;5446625;26;20216;-47
2024/04/12 01:03:14;;;;;;;;;;;;;;;7.74;100.00;99321.84;5445423;26;19963;-48
2024/04/12 01:05:39;;;;;;;;;;;;;;;7.80;100.00;99316.53;5448999;26;20360;-49
2024/04/12 01:08:06;;;;;;;;;;;;;;;7.53;100.00;99319.78;5447092;26;19992;-47
2024/04/12 01:10:34;;;;;;;;;;;;;;;7.52;100.00;99318.06;5442789;26;20257;-47
2024/04/12 01:13:02;;;;;;;;;;;;;;;7.94;99.58;99306.69;5448388;26;19951;-47
2024/04/12 01:15:32;;;;;;;;;;;;;;;7.51;100.00;99312.91;5443952;26;19929;-47
2024/04/12 01:17:57;;;;;;;;;;;;;;;7.51;100.00;99316.38;5443818;26;19964;-48
2024/04/12 01:20:25;;;;;;;;;;;;;;;7.60;100.00;99308.38;5451983;26;19940;-47
2024/04/12 01:22:50;;;;;;;;;;;;;;;7.83;100.00;99313.84;5452191;26;19982;-48
2024/04/12 01:25:15;;;;;;;;;;;;;;;7.73;100.00;99311.53;5437925;26;20404;-47
2024/04/12 01:27:41;;;;;;;;;;;;;;;7.63;100.00;99316.06;5438342;26;19936;-47
2024/04/12 01:30:06;;;;;;;;;;;;;;;7.69;100.00;99308.16;5446070;26;19962;-47
2024/04/12 01:32:33;;;;;;;;;;;;;;;7.69;99.54;99310.75;5450566;26;20041;-48
2024/04/12 01:34:58;;;;;;;;;;;;;;;7.50;100.00;99312.06;5451619;26;19964;-47
2024/04/12 01:37:23;;;;;;;;;;;;;;;7.40;100.00;99307.13;5445877;26;19934;-47
2024/04/12 01:39:49;;;;;;;;;;;;;;;7.42;100.00;99311.38;5450292;26;19985;-47
2024/04/12 01:42:16;;;;;;;;;;;;;;;7.41;100.00;99309.69;5448903;26;20438;-47
2024/04/12 01:45:13;;;;;;;;;;;;;;;7.26;100.00;99310.03;5449352;26;19966;-47
2024/04/12 01:47:34;;;;;;;;;;;;;;;7.35;100.00;99311.56;5449593;26;19967;-47
2024/04/12 01:50:04;;;;;;;;;;;;;;;7.34;100.00;99310.72;5438781;26;19937;-46
2024/04/12 01:52:30;;;;;;;;;;;;;;;7.26;100.00;99314.34;5435285;26;20039;-47
2024/04/12 01:55:05;;;;;;;;;;;;;;;7.09;100.00;99313.88;5435948;26;19974;-49
2024/04/12 01:57:30;;;;;;;;;;;;;;;7.06;100.00;99319.97;5435468;26;19977;-47
2024/04/12 01:59:56;;;;;;;;;;;;;;;6.94;100.00;99317.63;5433708;26;19969;-47
2024/04/12 02:02:21;;;;;;;;;;;;;;;7.25;100.00;99323.88;5435426;26;19943;-46
2024/04/12 02:04:51;;;;;;;;;;;;;;;7.32;100.00;99325.44;5425297;26;20053;-47
2024/04/12 02:07:16;;;;;;;;;;;;;;;7.16;100.00;99324.06;5430557;26;19978;-46
2024/04/12 02:09:42;;;;;;;;;;;;;;;7.06;100.00;99327.72;5433311;26;19968;-47
2024/04/12 02:12:07;;;;;;;;;;;;;;;7.11;100.00;99331.09;5444682;26;19968;-49
2024/04/12 02:14:33;;;;;;;;;;;;;;;7.16;100.00;99329.22;5428323;26;20321;-48
2024/04/12 02:16:58;;;;;;;;;;;;;;;7.08;100.00;99331.13;5433488;26;19929;-46
2024/04/12 02:19:25;;;;;;;;;;;;;;;7.27;100.00;99337.63;5442372;26;20040;-47
2024/04/12 02:21:50;;;;;;;;;;;;;;;7.02;100.00;99331.25;5440452;26;20015;-47
2024/04/12 02:24:18;;;;;;;;;;;;;;;6.81;100.00;99331.69;5438295;26;19990;-47
2024/04/12 02:26:46;;;;;;;;;;;;;;;6.70;100.00;99338.81;5450658;26;20412;-47
2024/04/12 02:29:11;;;;;;;;;;;;;;;6.76;100.00;99337.84;5447708;26;19978;-47
2024/04/12 02:31:36;;;;;;;;;;;;;;;6.90;100.00;99335.84;5447057;26;19962;-47
2024/04/12 02:34:04;;;;;;;;;;;;;;;7.15;100.00;99343.06;5431944;26;19929;-46
2024/04/12 02:36:33;;;;;;;;;;;;;;;6.99;100.00;99341.69;5437052;26;22630;-47
2024/04/12 02:38:58;;;;;;;;;;;;;;;7.05;100.00;99340.69;5442687;26;19928;-48
2024/04/12 02:41:24;;;;;;;;;;;;;;;7.13;100.00;99333.63;5433777;26;19963;-48
2024/04/12 02:43:52;;;;;;;;;;;;;;;6.94;100.00;99340.91;5452141;26;20261;-49
2024/04/12 02:46:18;;;;;;;;;;;;;;;7.02;100.00;99331.25;5434877;26;19970;-46
2024/04/12 02:48:43;;;;;;;;;;;;;;;6.79;100.00;99333.47;5452101;26;19935;-48
2024/04/12 02:51:12;;;;;;;;;;;;;;;6.79;100.00;99328.31;5452067;26;19997;-48
2024/04/12 02:53:38;;;;;;;;;;;;;;;6.88;100.00;99335.03;5445449;26;20328;-46
2024/04/12 02:56:08;;;;;;;;;;;;;;;6.83;100.00;99332.50;5451187;26;19943;-47
2024/04/12 02:58:40;;;;;;;;;;;;;;;6.77;100.00;99335.22;5446275;26;19972;-46
2024/04/12 03:01:13;;;;;;;;;;;;;;;6.90;100.00;99339.25;5419230;26;20318;-48
2024/04/12 03:03:45;;;;;;;;;;;;;;;6.84;100.00;99330.78;5434434;26;20051;-46
2024/04/12 03:06:16;;;;;;;;;;;;;;;6.93;100.00;99336.63;5448409;26;20264;-47
2024/04/12 03:08:44;;;;;;;;;;;;;;;6.69;100.00;99342.28;5446824;26;19936;-46
2024/04/12 03:11:22;;;;;;;;;;;;;;;6.52;100.00;99344.34;5440442;26;19928;-46
2024/04/12 03:13:50;;;;;;;;;;;;;;;6.48;100.00;99347.88;5432627;26;19936;-46
2024/04/12 03:16:16;;;;;;;;;;;;;;;6.20;100.00;99346.66;5439812;26;19944;-46
2024/04/12 03:18:42;;;;;;;;;;;;;;;6.22;100.00;99344.88;5436188;26;20319;-46
2024/04/12 03:21:07;;;;;;;;;;;;;;;6.48;100.00;99342.69;5434114;26;19971;-47
2024/04/12 03:23:33;;;;;;;;;;;;;;;6.57;100.00;99342.50;5428350;26;20434;-46
2024/04/12 03:25:58;;;;;;;;;;;;;;;6.52;100.00;99338.31;5429274;26;19973;-47
2024/04/12 03:28:24;;;;;;;;;;;;;;;6.35;100.00;99338.63;5434084;26;19929;-46
2024/04/12 03:30:50;;;;;;;;;;;;;;;6.24;100.00;99344.88;5440884;26;19988;-48
2024/04/12 03:33:16;;;;;;;;;;;;;;;6.55;100.00;99346.03;5418234;26;20282;-46
2024/04/12 03:35:42;;;;;;;;;;;;;;;6.41;100.00;99330.75;5423918;26;19965;-46
2024/04/12 03:38:25;;;;;;;;;;;;;;;6.19;100.00;99328.59;5445670;26;19970;-46
2024/04/12 03:41:00;;;;;;;;;;;;;;;6.37;100.00;99333.44;5438169;26;19965;-46
2024/04/12 03:43:27;;;;;;;;;;;;;;;6.29;100.00;99330.97;5472157;26;19967;-46
2024/04/12 03:45:57;;;;;;;;;;;;;;;6.18;100.00;99330.34;5448013;26;19932;-46
2024/04/12 03:48:24;;;;;;;;;;;;;;;6.23;100.00;99330.25;5442718;26;19963;-46
2024/04/12 03:50:59;;;;;;;;;;;;;;;6.17;100.00;99326.03;5430801;26;19936;-46
2024/04/12 03:53:28;;;;;;;;;;;;;;;6.11;100.00;99340.78;5441368;26;19969;-47
2024/04/12 03:55:54;;;;;;;;;;;;;;;6.03;100.00;99332.31;5424468;26;20034;-46
2024/04/12 03:58:19;;;;;;;;;;;;;;;5.86;100.00;99329.16;5426618;26;19967;-46
2024/04/12 04:00:45;;;;;;;;;;;;;;;5.84;100.00;99336.09;5436174;26;19937;-46
2024/04/12 04:03:23;;;;;;;;;;;;;;;6.05;100.00;99341.75;5432179;26;19992;-47
2024/04/12 04:05:54;;;;;;;;;;;;;;;6.13;100.00;99339.91;5434173;26;19967;-46
2024/04/12 04:08:19;;;;;;;;;;;;;;;6.07;100.00;99334.81;5422575;26;20006;-46
2024/04/12 04:10:49;;;;;;;;;;;;;;;6.07;100.00;99340.00;5441107;26;19993;-46
2024/04/12 04:13:15;;;;;;;;;;;;;;;6.03;100.00;99338.31;5444014;26;19974;-46
2024/04/12 04:15:50;;;;;;;;;;;;;;;5.86;100.00;99337.78;5447949;26;19968;-45
2024/04/12 04:18:17;;;;;;;;;;;;;;;5.84;100.00;99347.25;5435764;26;19982;-46
2024/04/12 04:20:42;;;;;;;;;;;;;;;5.91;100.00;99333.38;5434626;26;20271;-47
2024/04/12 04:23:07;;;;;;;;;;;;;;;6.01;100.00;99337.50;5450718;26;20027;-46
2024/04/12 04:25:33;;;;;;;;;;;;;;;5.87;100.00;99342.06;5447274;26;19959;-46
2024/04/12 04:27:58;;;;;;;;;;;;;;;5.91;100.00;99337.69;5433293;26;20232;-46
2024/04/12 04:30:25;;;;;;;;;;;;;;;6.01;100.00;99332.34;5439396;26;19989;-46
2024/04/12 04:32:50;;;;;;;;;;;;;;;5.95;100.00;99329.84;5440788;26;20262;-47
2024/04/12 04:35:15;;;;;;;;;;;;;;;5.82;100.00;99333.53;5431549;26;20004;-46
2024/04/12 04:37:41;;;;;;;;;;;;;;;5.78;100.00;99337.00;5444038;26;19962;-47
2024/04/12 04:40:41;;;;;;;;;;;;;;;5.83;100.00;99339.56;5437732;26;19940;-46
2024/04/12 04:42:59;;;;;;;;;;;;;;;6.00;100.00;99333.22;5434348;26;19965;-47
2024/04/12 04:45:31;;;;;;;;;;;;;;;6.07;100.00;99334.81;5433685;26;20043;-47
2024/04/12 04:47:57;;;;;;;;;;;;;;;5.97;100.00;99338.44;5449037;26;20279;-46
2024/04/12 04:50:23;;;;;;;;;;;;;;;6.11;100.00;99336.50;5437416;26;19935;-47
2024/04/12 04:52:50;;;;;;;;;;;;;;;6.11;100.00;99328.75;5425615;26;19928;-46
2024/04/12 04:55:17;;;;;;;;;;;;;;;6.41;100.00;99333.34;5444729;26;19999;-46
2024/04/12 04:57:49;;;;;;;;;;;;;;;6.43;100.00;99329.00;5442400;26;19984;-46
2024/04/12 05:00:24;;;;;;;;;;;;;;;6.41;100.00;99325.59;5438127;26;19966;-45
2024/04/12 05:02:55;;;;;;;;;;;;;;;6.51;100.00;99326.28;5439099;26;19935;-46
2024/04/12 05:05:23;;;;;;;;;;;;;;;6.79;100.00;99333.47;5439518;26;19983;-46
2024/04/12 05:07:50;;;;;;;;;;;;;;;6.99;100.00;99336.50;5431671;26;19952;-47
2024/04/12 05:10:15;;;;;;;;;;;;;;;7.18;100.00;99337.84;5434285;26;19929;-46
2024/04/12 05:12:40;;;;;;;;;;;;;;;7.23;100.00;99335.97;5445506;26;19928;-46
2024/04/12 05:15:39;;;;;;;;;;;;;;;7.38;99.38;99343.44;5448340;26;19963;-46
2024/04/12 05:17:54;;;;;;;;;;;;;;;7.41;99.37;99335.59;5442666;26;19961;-46
2024/04/12 05:20:20;;;;;;;;;;;;;;;7.33;100.00;99337.50;5432692;26;19929;-46
2024/04/12 05:22:46;;;;;;;;;;;;;;;7.26;100.00;99337.66;5442925;26;19972;-47
2024/04/12 05:25:13;;;;;;;;;;;;;;;7.41;100.00;99335.59;5443362;26;20450;-46
2024/04/12 05:27:40;;;;;;;;;;;;;;;7.44;99.81;99339.84;5431016;26;19940;-46
2024/04/12 05:30:06;;;;;;;;;;;;;;;7.48;100.00;99347.50;5428127;26;19997;-46
2024/04/12 05:32:32;;;;;;;;;;;;;;;7.56;100.00;99348.19;5433499;26;20053;-46
2024/04/12 05:34:58;;;;;;;;;;;;;;;7.52;100.00;99349.16;5437695;26;19967;-46
2024/04/12 05:37:23;;;;;;;;;;;;;;;7.64;100.00;99359.25;5437230;26;20265;-46
2024/04/12 05:39:50;;;;;;;;;;;;;;;7.63;100.00;99354.94;5470983;26;20249;-46
2024/04/12 05:42:16;;;;;;;;;;;;;;;7.74;100.00;99355.53;5445695;26;19929;-48
2024/04/12 05:44:41;;;;;;;;;;;;;;;8.05;99.03;99361.72;5432565;26;19936;-46
2024/04/12 05:47:09;;;;;;;;;;;;;;;8.07;99.59;99359.91;5422108;26;19961;-46
2024/04/12 05:49:35;;;;;;;;;;;;;;;8.15;98.41;99362.34;5438903;26;19976;-47
2024/04/12 05:52:01;;;;;;;;;;;;;;;8.60;99.63;99362.03;5438417;26;19960;-47
2024/04/12 05:54:33;;;;;;;;;;;;;;;8.96;98.24;99360.19;5435569;26;20044;-48
2024/04/12 05:56:58;;;;;;;;;;;;;;;8.82;96.69;99352.75;5450478;26;19994;-47
2024/04/12 05:59:24;;;;;;;;;;;;;;;9.16;95.19;99353.50;5440938;26;19962;-46
2024/04/12 06:01:51;;;;;;;;;;;;;;;9.34;93.57;99352.97;5445970;26;19932;-47
2024/04/12 06:04:19;;;;;;;;;;;;;;;9.94;90.85;99351.09;5429858;26;19970;-46
2024/04/12 06:06:44;;;;;;;;;;;;;;;10.25;89.24;99351.84;5444401;26;20059;-47
2024/04/12 06:09:22;;;;;;;;;;;;;;;10.44;87.25;99352.91;5439105;26;19941;-47
2024/04/12 06:11:52;;;;;;;;;;;;;;;10.28;85.42;99356.91;5435480;26;20297;-47
2024/04/12 06:14:20;;;;;;;;;;;;;;;11.03;84.59;99359.47;5448234;26;19929;-47
2024/04/12 06:16:46;;;;;;;;;;;;;;;11.27;81.74;99358.56;5448401;26;20082;-47
2024/04/12 06:19:12;;;;;;;;;;;;;;;11.31;81.88;99350.56;5438317;26;19962;-47
2024/04/12 06:21:38;;;;;;;;;;;;;;;11.19;80.96;99358.00;5445618;26;19976;-47
2024/04/12 06:24:08;;;;;;;;;;;;;;;11.13;81.42;99355.63;5439948;26;20050;-48
2024/04/12 06:26:39;;;;;;;;;;;;;;;11.36;83.48;99368.63;5428709;26;19990;-48
2024/04/12 06:29:05;;;;;;;;;;;;;;;12.04;79.36;99374.69;5440300;26;20081;-48
2024/04/12 06:31:34;;;;;;;;;;;;;;;12.48;76.08;99371.09;5422265;26;20043;-48
2024/04/12 06:34:04;;;;;;;;;;;;;;;14.37;70.91;99380.69;5434309;26;20346;-48
2024/04/12 06:36:33;;;;;;;;;;;;;;;14.36;66.20;99381.63;5446900;26;20465;-48
2024/04/12 06:39:04;;;;;;;;;;;;;;;15.35;64.37;99381.72;5444358;26;19928;-48
2024/04/12 06:41:30;;;;;;;;;;;;;;;15.97;60.92;99371.25;5435128;26;20053;-50
2024/04/12 06:43:55;;;;;;;;;;;;;;;16.21;60.27;99380.34;5447192;26;19929;-49
2024/04/12 06:46:20;;;;;;;;;;;;;;;16.71;59.80;99383.59;5447557;26;19932;-48
2024/04/12 06:48:49;;;;;;;;;;;;;;;16.56;59.71;99387.13;5434960;26;19986;-48
2024/04/12 06:51:16;;;;;;;;;;;;;;;16.33;58.73;99387.53;5443019;26;19940;-49
2024/04/12 06:53:44;;;;;;;;;;;;;;;15.19;61.38;99393.88;5444090;26;19929;-49
2024/04/12 06:56:15;;;;;;;;;;;;;;;15.78;62.47;99381.94;5450643;26;20331;-49
2024/04/12 06:58:41;;;;;;;;;;;;;;;15.65;62.38;99380.91;5443971;26;20311;-49
2024/04/12 07:01:07;;;;;;;;;;;;;;;16.04;61.48;99383.09;5450098;26;19962;-48
2024/04/12 07:03:34;;;;;;;;;;;;;;;15.62;63.08;99390.72;5439032;26;19946;-48
2024/04/12 07:06:01;;;;;;;;;;;;;;;15.14;64.71;99388.03;5445469;26;19936;-49
2024/04/12 07:08:26;;;;;;;;;;;;;;;15.55;63.34;99389.38;5442914;26;19959;-49
2024/04/12 07:10:52;;;;;;;;;;;;;;;15.59;64.47;99380.38;5436748;26;19929;-48
2024/04/12 07:13:21;;;;;;;;;;;;;;;15.47;65.07;99375.78;5443110;26;19966;-49
2024/04/12 07:15:48;;;;;;;;;;;;;;;16.02;63.41;99382.34;5438216;26;20343;-48
2024/04/12 07:18:15;;;;;;;;;;;;;;;16.46;62.49;99370.16;5431817;26;19967;-49
2024/04/12 07:20:44;;;;;;;;;;;;;;;16.39;61.72;99379.34;5439365;26;20424;-50
2024/04/12 07:23:10;;;;;;;;;;;;;;;16.79;61.18;99378.72;5438880;26;19970;-49
2024/04/12 07:25:39;;;;;;;;;;;;;;;17.03;61.24;99378.09;5429139;26;20010;-48
2024/04/12 07:28:09;;;;;;;;;;;;;;;16.28;61.98;99373.81;5445355;26;20316;-49
2024/04/12 07:30:37;;;;;;;;;;;;;;;16.66;61.08;99373.34;5438834;26;19962;-49
2024/04/12 07:33:05;;;;;;;;;;;;;;;16.97;61.01;99377.63;5448698;26;20024;-49
2024/04/12 07:35:32;;;;;;;;;;;;;;;17.86;58.53;99371.97;5429423;26;19934;-49
2024/04/12 07:38:01;;;;;;;;;;;;;;;18.24;58.85;99372.16;5436156;26;20041;-49
2024/04/12 07:40:31;;;;;;;;;;;;;;;19.06;56.44;99374.44;5437917;26;19962;-48
2024/04/12 07:42:58;;;;;;;;;;;;;;;22.27;49.51;99380.88;5438792;26;19963;-49
2024/04/12 07:45:24;;;;;;;;;;;;;;;23.68;46.17;99396.22;5434179;26;20003;-49
2024/04/12 07:47:53;;;;;;;;;;;;;;;24.93;42.90;99388.34;5434864;26;19968;-50
2024/04/12 07:50:29;;;;;;;;;;;;;;;25.98;41.94;99394.28;5434395;26;19963;-48
2024/04/12 07:52:57;;;;;;;;;;;;;;;24.33;43.28;99394.75;5434242;26;19964;-48
2024/04/12 07:55:26;;;;;;;;;;;;;;;26.83;40.75;99390.16;5430553;26;19985;-48
2024/04/12 07:57:54;;;;;;;;;;;;;;;26.01;41.61;99396.63;5447126;26;19963;-47
2024/04/12 08:00:35;;;;;;;;;;;;;;;27.31;40.78;99385.25;5446329;26;19933;-48
2024/04/12 08:03:00;;;;;;;;;;;;;;;26.54;40.07;99386.91;5430176;26;19999;-47
2024/04/12 08:05:25;;;;;;;;;;;;;;;26.90;39.70;99383.22;5436630;26;19929;-49
2024/04/12 08:07:56;;;;;;;;;;;;;;;28.21;38.54;99373.81;5448698;26;19966;-49
2024/04/12 08:10:29;;;;;;;;;;;;;;;27.81;38.28;99367.47;5447847;26;19970;-50
2024/04/12 08:12:57;;;;;;;;;;;;;;;26.95;39.07;99364.88;5444422;26;19958;-49
2024/04/12 08:15:22;;;;;;;;;;;;;;;29.05;37.67;99363.75;5439763;26;20225;-49
2024/04/12 08:17:49;;;;;;;;;;;;;;;29.12;37.38;99364.75;5432839;26;19977;-48
2024/04/12 08:20:16;;;;;;;;;;;;;;;28.58;37.43;99352.00;5424196;26;19937;-48
2024/04/12 08:22:46;;;;;;;;;;;;;;;29.41;36.15;99354.28;5449470;26;20013;-48
2024/04/12 08:25:17;;;;;;;;;;;;;;;30.76;35.12;99360.06;5447906;26;19940;-48
2024/04/12 08:27:43;;;;;;;;;;;;;;;31.46;34.37;99358.75;5435811;26;19972;-48
2024/04/12 08:30:13;;;;;;;;;;;;;;;30.96;33.68;99347.78;5447276;26;19993;-48
2024/04/12 08:32:39;;;;;;;;;;;;;;;30.96;34.90;99350.47;5440136;26;19957;-49
2024/04/12 08:35:08;;;;;;;;;;;;;;;31.90;32.84;99347.81;5437882;26;19966;-50
2024/04/12 08:37:39;;;;;;;;;;;;;;;30.25;34.14;99344.59;5441098;26;19994;-52
2024/04/12 08:40:08;;;;;;;;;;;;;;;30.66;34.45;99343.34;5451284;26;19991;-50
2024/04/12 08:42:34;;;;;;;;;;;;;;;32.78;32.44;99357.38;5432896;26;20326;-50
2024/04/12 08:45:09;;;;;;;;;;;;;;;32.06;32.94;99347.59;5442333;26;20010;-52
2024/04/12 08:47:36;;;;;;;;;;;;;;;32.64;32.19;99347.44;5444860;26;19959;-50
2024/04/12 08:50:07;;;;;;;;;;;;;;;33.55;31.34;99348.25;5451719;26;19965;-50
2024/04/12 08:52:43;;;;;;;;;;;;;;;34.44;30.66;99345.34;5442205;26;20476;-51
2024/04/12 08:55:13;;;;;;;;;;;;;;;33.86;31.38;99354.06;5436328;26;19995;-50
2024/04/12 08:57:41;;;;;;;;;;;;;;;34.14;31.78;99348.56;5439368;26;20047;-50
2024/04/12 09:00:08;;;;;;;;;;;;;;;28.75;37.17;99330.38;5443401;26;20027;-50
2024/04/12 09:02:48;;;;;;;;;;;;;;;26.23;41.70;99324.13;5443882;26;20282;-50
2024/04/12 09:05:13;;;;;;;;;;;;;;;24.97;42.60;99321.31;5440429;26;19998;-49
2024/04/12 09:07:42;;;;;;;;;;;;;;;24.90;43.14;99325.53;5441837;26;19929;-49
2024/04/12 09:10:07;;;;;;;;;;;;;;;23.98;44.25;99319.03;5448274;26;19988;-49
2024/04/12 09:12:36;;;;;;;;;;;;;;;24.25;45.00;99319.22;5430756;26;19965;-49
2024/04/12 09:15:03;;;;;;;;;;;;;;;25.60;43.16;99330.38;5435353;26;19929;-49
2024/04/12 09:17:29;;;;;;;;;;;;;;;25.83;42.63;99326.31;5439464;26;19959;-48
2024/04/12 09:19:57;;;;;;;;;;;;;;;26.10;42.89;99326.31;5443355;26;20062;-48
2024/04/12 09:22:27;;;;;;;;;;;;;;;24.60;43.24;99328.34;5442272;26;20007;-48
2024/04/12 09:24:56;;;;;;;;;;;;;;;24.55;44.74;99324.41;5446265;26;19991;-48
2024/04/12 09:27:33;;;;;;;;;;;;;;;24.84;43.64;99320.78;5449875;26;20285;-47
2024/04/12 09:32:50;;;;;;;;;;;;;;;24.93;43.00;99325.22;5441696;26;19929;-48
2024/04/12 09:33:00;;;;;;;;;;;;;;;25.34;42.86;99340.03;5443278;26;20108;-47
2024/04/12 09:35:27;;;;;;;;;;;;;;;24.89;43.32;99328.31;5444356;26;20043;-48
2024/04/12 09:38:04;;;;;;;;;;;;;;;25.98;42.79;99327.53;5443308;26;20062;-47
2024/04/12 09:40:34;;;;;;;;;;;;;;;27.59;41.22;99327.88;5438179;26;20334;-48
2024/04/12 09:45:45;;;;;;;;;;;;;;;26.84;40.69;99333.03;5443499;26;19935;-48
2024/04/12 10:37:48;;;;;;;;;;;;;;;28.49;37.16;99302.03;5443965;26;19983;-49
2024/04/12 10:40:14;;;;;;;;;;;;;;;27.55;36.41;99294.41;5422500;26;20395;-48
2024/04/12 10:42:42;;;;;;;;;;;;;;;27.51;36.64;99293.06;5437612;26;19960;-48
2024/04/12 10:45:08;;;;;;;;;;;;;;;28.63;36.04;99278.09;5430686;26;20263;-48
2024/04/12 10:47:39;;;;;;;;;;;;;;;28.46;35.45;99278.28;5443926;26;20331;-49
2024/04/12 10:50:05;;;;;;;;;;;;;;;28.32;35.89;99274.38;5452061;26;20351;-48
2024/04/12 10:52:30;;;;;;;;;;;;;;;27.98;35.88;99272.84;5440771;26;20037;-49
2024/04/12 10:54:56;;;;;;;;;;;;;;;28.11;36.27;99275.88;5433671;26;19971;-50
2024/04/12 10:57:23;;;;;;;;;;;;;;;28.62;36.15;99270.22;5439815;26;19977;-48
2024/04/12 10:59:51;;;;;;;;;;;;;;;27.78;36.21;99260.75;5434326;26;19961;-50
2024/04/12 11:02:17;;;;;;;;;;;;;;;28.45;35.76;99264.03;5439731;26;19975;-49
2024/04/12 11:07:27;;;;;;;;;;;;;;;28.28;36.36;99262.34;5441225;26;19993;-50
2024/04/12 11:09:58;;;;;;;;;;;;;;;27.56;37.75;99248.75;5431263;26;19972;-48
2024/04/12 11:12:39;;;;;;;;;;;;;;;27.55;37.45;99240.88;5440865;26;19997;-48
2024/04/12 11:31:52;;;;;;;;;;;;;;;26.60;37.57;99234.00;5433599;26;19975;-46
2024/04/12 11:34:17;;;;;;;;;;;;;;;28.94;36.36;99240.69;5431361;26;19929;-46
2024/04/12 11:36:44;;;;;;;;;;;;;;;29.79;35.04;99227.31;5440698;26;20383;-47
2024/04/12 11:39:17;;;;;;;;;;;;;;;28.97;35.64;99227.81;5433718;26;19989;-47
2024/04/12 11:41:46;;;;;;;;;;;;;;;28.46;35.97;99232.72;5439285;26;19997;-46
2024/04/12 11:44:17;;;;;;;;;;;;;;;27.72;38.42;99226.56;5439675;26;20006;-46
2024/04/12 11:46:45;;;;;;;;;;;;;;;28.08;37.32;99226.16;5436142;26;20338;-46
2024/04/12 11:49:11;;;;;;;;;;;;;;;28.85;36.06;99228.31;5433273;26;20010;-46
2024/04/12 11:51:37;;;;;;;;;;;;;;;27.17;36.91;99222.66;5427267;26;20309;-47
2024/04/12 11:54:05;;;;;;;;;;;;;;;27.94;37.00;99215.25;5430851;26;20056;-45
2024/04/12 11:56:31;;;;;;;;;;;;;;;27.76;36.53;99212.72;5442355;26;19936;-47
2024/04/12 11:58:58;;;;;;;;;;;;;;;27.66;37.08;99211.97;5440834;26;19942;-49
2024/04/12 12:01:23;;;;;;;;;;;;;;;27.97;36.26;99198.84;5448859;26;20319;-47
2024/04/12 12:03:49;;;;;;;;;;;;;;;28.05;36.54;99198.88;5443150;26;19943;-47
2024/04/12 12:06:16;;;;;;;;;;;;;;;27.60;36.24;99195.75;5451350;26;19936;-47
2024/04/12 12:08:41;;;;;;;;;;;;;;;28.26;35.48;99201.88;5432596;26;19928;-47
2024/04/12 12:11:10;;;;;;;;;;;;;;;28.43;35.77;99201.75;5442466;26;19989;-47
2024/04/12 12:13:36;;;;;;;;;;;;;;;28.33;35.90;99200.22;5443373;26;20330;-47
2024/04/12 12:16:03;;;;;;;;;;;;;;;28.55;36.56;99200.38;5450649;26;19964;-46
2024/04/12 12:18:29;;;;;;;;;;;;;;;29.00;36.13;99202.50;5449524;26;19928;-47
2024/04/12 12:20:56;;;;;;;;;;;;;;;28.97;35.21;99200.13;5439344;26;19929;-47
2024/04/12 12:23:24;;;;;;;;;;;;;;;29.15;35.54;99198.06;5442770;26;19997;-47
2024/04/12 12:25:51;;;;;;;;;;;;;;;30.75;35.43;99191.63;5441128;26;20165;-49
2024/04/12 12:28:17;;;;;;;;;;;;;;;28.88;35.02;99190.41;5442134;26;19937;-47
2024/04/12 12:30:54;;;;;;;;;;;;;;;30.15;35.56;99185.44;5434618;26;19940;-47
2024/04/12 12:33:20;;;;;;;;;;;;;;;30.00;34.70;99179.16;5440333;26;19959;-47
2024/04/12 12:35:46;;;;;;;;;;;;;;;30.43;34.15;99165.03;5442729;26;20000;-48
2024/04/12 12:38:12;;;;;;;;;;;;;;;30.80;34.80;99168.56;5442945;26;20247;-48
2024/04/12 12:40:38;;;;;;;;;;;;;;;29.49;34.53;99163.69;5438959;26;19969;-48
2024/04/12 12:43:04;;;;;;;;;;;;;;;28.74;35.55;99167.00;5440680;26;19929;-49
2024/04/12 12:45:33;;;;;;;;;;;;;;;26.99;36.21;99163.09;5442215;26;19974;-47
2024/04/12 12:47:58;;;;;;;;;;;;;;;26.70;36.52;99162.59;5441087;26;19964;-48
2024/04/12 12:50:24;;;;;;;;;;;;;;;27.93;35.71;99165.38;5444364;26;19970;-48
2024/04/12 12:52:49;;;;;;;;;;;;;;;27.95;35.63;99168.72;5446642;26;19928;-49
2024/04/12 12:55:16;;;;;;;;;;;;;;;27.72;36.61;99167.69;5433195;26;19945;-48
2024/04/12 12:57:44;;;;;;;;;;;;;;;27.79;35.17;99169.53;5453276;26;19929;-48
2024/04/12 13:00:18;;;;;;;;;;;;;;;26.83;36.81;99163.00;5437438;26;19941;-48
2024/04/12 13:02:44;;;;;;;;;;;;;;;27.03;36.09;99157.25;5440272;26;19935;-47
2024/04/12 13:05:14;;;;;;;;;;;;;;;27.12;36.75;99148.25;5449169;26;19937;-47
2024/04/12 13:07:40;;;;;;;;;;;;;;;28.46;36.90;99155.81;5431930;26;20352;-48
2024/04/12 13:10:12;;;;;;;;;;;;;;;29.03;35.32;99146.66;5441397;26;19929;-47
2024/04/12 13:12:38;;;;;;;;;;;;;;;29.05;35.18;99141.13;5443316;26;19928;-47
2024/04/12 13:15:04;;;;;;;;;;;;;;;29.48;35.65;99140.56;5439436;26;19960;-47
2024/04/12 13:17:36;;;;;;;;;;;;;;;29.04;34.66;99142.16;5442156;26;20265;-48
2024/04/12 13:20:06;;;;;;;;;;;;;;;27.90;35.69;99129.06;5435439;26;20020;-47
2024/04/12 13:22:32;;;;;;;;;;;;;;;28.70;35.27;99128.13;5449672;26;19948;-47
2024/04/12 13:24:58;;;;;;;;;;;;;;;28.06;36.23;99128.25;5442115;26;19968;-48
2024/04/12 13:27:23;;;;;;;;;;;;;;;28.04;36.09;99114.16;5450310;26;19981;-47
2024/04/12 13:29:49;;;;;;;;;;;;;;;28.59;35.91;99115.13;5437824;26;19929;-47
2024/04/12 13:32:14;;;;;;;;;;;;;;;28.47;36.48;99124.53;5447637;26;20278;-47
2024/04/12 13:34:43;;;;;;;;;;;;;;;28.42;37.18;99118.84;5440416;26;19928;-47
2024/04/12 13:37:09;;;;;;;;;;;;;;;28.97;37.33;99108.94;5434949;26;20340;-48
2024/04/12 13:39:35;;;;;;;;;;;;;;;27.76;37.42;99110.13;5441869;26;19928;-47
2024/04/12 13:42:03;;;;;;;;;;;;;;;27.99;37.52;99100.47;5437742;26;19940;-47
2024/04/12 13:52:44;;;;;;;;;;;;;;;27.89;38.97;99102.47;5451604;26;19939;-47
2024/04/12 13:55:11;;;;;;;;;;;;;;;27.90;38.82;99102.31;5433850;26;19933;-48
2024/04/12 13:57:40;;;;;;;;;;;;;;;28.44;39.37;99106.13;5432240;26;19935;-48
2024/04/12 14:00:09;;;;;;;;;;;;;;;27.89;40.03;99105.13;5432534;26;20004;-50
2024/04/12 14:02:35;;;;;;;;;;;;;;;27.57;39.81;99102.41;5452604;26;19991;-48
2024/04/12 14:05:02;;;;;;;;;;;;;;;27.50;40.53;99104.91;5436477;26;19937;-48
2024/04/12 14:07:33;;;;;;;;;;;;;;;27.17;40.68;99096.97;5441017;26;19928;-49
2024/04/12 14:10:01;;;;;;;;;;;;;;;27.26;40.64;99090.69;5442531;26;19969;-48
2024/04/12 14:12:26;;;;;;;;;;;;;;;26.81;40.94;99098.19;5442830;26;19991;-48